createdAt,value
2023-03-01T00:01:42.278Z,7.25
2023-03-01T00:04:12.426Z,7.72
2023-03-01T00:06:40.052Z,7.20
2023-03-01T00:09:07.611Z,7.72
2023-03-01T00:11:36.697Z,7.35
2023-03-01T00:14:07.565Z,7.47
2023-03-01T00:16:40.608Z,7.40
2023-03-01T00:19:09.352Z,7.05
2023-03-01T00:21:38.174Z,6.80
2023-03-01T00:24:06.274Z,7.45
2023-03-01T00:26:33.878Z,7.50
2023-03-01T00:29:01.890Z,6.93
2023-03-01T00:31:33.244Z,7.15
2023-03-01T00:34:02.434Z,7.57
2023-03-01T00:36:31.700Z,7.22
2023-03-01T00:39:01.542Z,7.20
2023-03-01T00:41:29.515Z,7.38
2023-03-01T00:43:57.968Z,7.60
2023-03-01T00:46:28.431Z,6.90
2023-03-01T00:48:58.180Z,7.65
2023-03-01T00:51:28.122Z,7.45
2023-03-01T00:54:02.360Z,7.22
2023-03-01T00:56:32.926Z,7.40
2023-03-01T00:59:00.806Z,7.68
2023-03-01T01:01:31.422Z,7.13
2023-03-01T01:04:00.967Z,7.53
2023-03-01T01:06:30.360Z,8.02
2023-03-01T01:08:59.409Z,7.75
2023-03-01T01:11:30.477Z,7.90
2023-03-01T01:13:59.395Z,8.40
2023-03-01T01:16:29.022Z,8.50
2023-03-01T01:18:57.577Z,9.65
2023-03-01T01:21:27.899Z,9.02
2023-03-01T01:23:56.957Z,8.00
2023-03-01T01:26:28.959Z,8.75
2023-03-01T01:28:57.135Z,8.65
2023-03-01T01:31:26.494Z,7.40
2023-03-01T01:33:55.233Z,6.82
2023-03-01T01:36:23.160Z,8.15
2023-03-01T01:38:50.671Z,7.47
2023-03-01T01:41:20.704Z,7.13
2023-03-01T01:43:53.375Z,7.38
2023-03-01T01:46:30.612Z,6.75
2023-03-01T01:49:02.071Z,6.93
2023-03-01T01:51:39.194Z,7.30
2023-03-01T01:54:12.385Z,6.45
2023-03-01T01:56:43.459Z,6.85
2023-03-01T01:59:14.827Z,6.38
2023-03-01T02:01:42.551Z,6.85
2023-03-01T02:04:10.327Z,7.28
2023-03-01T02:06:43.180Z,6.22
2023-03-01T02:09:16.339Z,6.40
2023-03-01T02:11:45.643Z,7.45
2023-03-01T02:14:14.641Z,6.95
2023-03-01T02:16:43.091Z,6.22
2023-03-01T02:19:22.325Z,7.00
2023-03-01T02:22:01.021Z,6.40
2023-03-01T02:24:37.107Z,6.13
2023-03-01T02:27:06.260Z,6.38
2023-03-01T02:29:37.359Z,6.75
2023-03-01T02:32:06.941Z,6.93
2023-03-01T02:34:35.747Z,6.10
2023-03-01T02:37:07.164Z,5.88
2023-03-01T02:39:43.335Z,6.27
2023-03-01T02:42:16.376Z,6.00
2023-03-01T02:44:46.588Z,6.40
2023-03-01T02:47:14.084Z,6.85
2023-03-01T02:49:42.344Z,6.32
2023-03-01T02:52:22.816Z,6.30
2023-03-01T02:54:56.354Z,6.32
2023-03-01T02:57:25.316Z,6.60
2023-03-01T02:59:58.328Z,6.55
2023-03-01T03:02:38.468Z,6.60
2023-03-01T03:05:12.829Z,6.38
2023-03-01T03:07:42.637Z,6.03
2023-03-01T03:10:14.434Z,5.95
2023-03-01T03:12:43.248Z,6.63
2023-03-01T03:15:13.512Z,6.00
2023-03-01T03:17:45.278Z,6.03
2023-03-01T03:20:20.414Z,5.90
2023-03-01T03:22:50.386Z,6.40
2023-03-01T03:25:19.638Z,6.43
2023-03-01T03:27:51.333Z,6.15
2023-03-01T03:30:22.688Z,6.50
2023-03-01T03:32:53.162Z,6.43
2023-03-01T03:35:21.902Z,6.35
2023-03-01T03:38:03.741Z,6.43
2023-03-01T03:43:04.880Z,5.70
2023-03-01T03:45:34.660Z,6.60
2023-03-01T03:48:02.656Z,6.57
2023-03-01T03:50:30.452Z,6.05
2023-03-01T03:52:58.417Z,6.38
2023-03-01T03:55:30.878Z,6.38
2023-03-01T03:58:03.045Z,6.75
2023-03-01T04:00:31.531Z,6.30
2023-03-01T04:03:00.399Z,6.60
2023-03-01T04:05:29.476Z,6.53
2023-03-01T04:08:08.113Z,6.13
2023-03-01T04:10:38.934Z,6.72
2023-03-01T04:13:07.680Z,7.13
2023-03-01T04:15:35.945Z,7.03
2023-03-01T04:18:06.326Z,6.43
2023-03-01T04:20:36.609Z,6.63
2023-03-01T04:23:15.355Z,7.07
2023-03-01T04:25:47.355Z,6.43
2023-03-01T04:28:15.762Z,5.97
2023-03-01T04:30:43.305Z,6.20
2023-03-01T04:33:13.449Z,6.07
2023-03-01T04:35:41.849Z,6.25
2023-03-01T04:38:10.233Z,7.15
2023-03-01T04:40:38.108Z,6.63
2023-03-01T04:43:06.456Z,6.07
2023-03-01T04:45:36.330Z,6.65
2023-03-01T04:48:06.308Z,6.22
2023-03-01T04:50:36.872Z,6.50
2023-03-01T04:53:04.808Z,6.47
2023-03-01T04:55:32.482Z,6.63
2023-03-01T04:58:01.315Z,6.03
2023-03-01T05:00:30.371Z,6.30
2023-03-01T05:03:01.183Z,6.55
2023-03-01T05:05:30.740Z,6.37
2023-03-01T05:08:02.301Z,6.35
2023-03-01T05:10:31.571Z,7.03
2023-03-01T05:13:01.936Z,7.03
2023-03-01T05:15:31.660Z,6.30
2023-03-01T05:18:01.318Z,6.60
2023-03-01T05:20:32.311Z,6.28
2023-03-01T05:23:06.016Z,6.43
2023-03-01T05:25:35.354Z,6.60
2023-03-01T05:28:05.456Z,6.65
2023-03-01T05:30:33.741Z,6.22
2023-03-01T05:33:26.789Z,6.32
2023-03-01T05:35:55.810Z,5.82
2023-03-01T05:38:25.194Z,6.38
2023-03-01T05:40:54.612Z,6.60
2023-03-01T05:43:22.720Z,6.22
2023-03-01T05:45:50.452Z,6.50
2023-03-01T05:48:20.461Z,6.03
2023-03-01T05:50:48.499Z,6.15
2023-03-01T05:53:17.755Z,6.80
2023-03-01T05:55:48.374Z,6.30
2023-03-01T05:58:18.943Z,6.78
2023-03-01T06:00:48.536Z,6.45
2023-03-01T06:03:18.810Z,6.85
2023-03-01T06:05:47.443Z,7.32
2023-03-01T06:08:15.707Z,6.63
2023-03-01T06:10:44.326Z,6.50
2023-03-01T06:13:13.168Z,6.82
2023-03-01T06:15:40.714Z,6.97
2023-03-01T06:18:08.287Z,6.70
2023-03-01T06:20:36.408Z,7.45
2023-03-01T06:23:03.906Z,7.15
2023-03-01T06:25:35.316Z,7.38
2023-03-01T06:28:03.386Z,7.70
2023-03-01T06:30:32.947Z,7.65
2023-03-01T06:33:02.255Z,7.13
2023-03-01T06:35:32.416Z,7.32
2023-03-01T06:38:01.561Z,7.47
2023-03-01T06:40:31.303Z,7.43
2023-03-01T06:43:00.488Z,7.47
2023-03-01T06:45:29.300Z,7.05
2023-03-01T06:48:05.548Z,6.85
2023-03-01T06:51:02.337Z,6.70
2023-03-01T06:53:30.047Z,6.57
2023-03-01T06:56:21.934Z,7.03
2023-03-01T06:58:49.412Z,7.03
2023-03-01T07:01:18.340Z,7.20
2023-03-01T07:03:47.436Z,6.78
2023-03-01T07:06:15.391Z,6.57
2023-03-01T07:08:44.768Z,6.47
2023-03-01T07:11:12.309Z,6.82
2023-03-01T07:13:39.789Z,6.50
2023-03-01T07:16:09.602Z,7.07
2023-03-01T07:18:37.759Z,7.07
2023-03-01T07:21:13.069Z,6.85
2023-03-01T07:23:41.171Z,7.32
2023-03-01T07:26:08.888Z,8.60
2023-03-01T07:28:40.385Z,10.32
2023-03-01T07:31:08.685Z,9.82
2023-03-01T07:33:36.227Z,8.63
2023-03-01T07:36:06.206Z,8.18
2023-03-01T07:38:36.382Z,6.88
2023-03-01T07:41:06.547Z,7.10
2023-03-01T07:43:34.135Z,7.20
2023-03-01T07:46:02.245Z,6.75
2023-03-01T07:48:30.705Z,6.47
2023-03-01T07:51:00.021Z,6.75
2023-03-01T07:53:29.304Z,6.22
2023-03-01T07:56:04.996Z,6.63
2023-03-01T07:58:33.457Z,6.00
2023-03-01T08:01:04.280Z,6.80
2023-03-01T08:03:35.356Z,6.80
2023-03-01T08:06:03.959Z,6.72
2023-03-01T08:08:31.850Z,6.43
2023-03-01T08:11:00.097Z,6.43
2023-03-01T08:13:29.744Z,6.88
2023-03-01T08:16:04.696Z,6.38
2023-03-01T08:18:32.326Z,6.03
2023-03-01T08:21:03.989Z,6.30
2023-03-01T08:23:31.848Z,6.60
2023-03-01T08:26:06.878Z,6.97
2023-03-01T08:28:36.384Z,6.72
2023-03-01T08:31:06.458Z,6.55
2023-03-01T08:33:33.944Z,6.68
2023-03-01T08:36:07.795Z,6.85
2023-03-01T08:38:35.492Z,6.38
2023-03-01T08:41:03.163Z,6.22
2023-03-01T08:43:30.777Z,6.03
2023-03-01T08:45:59.654Z,6.50
2023-03-01T08:48:29.735Z,6.28
2023-03-01T08:50:58.748Z,6.30
2023-03-01T08:53:26.370Z,5.93
2023-03-01T08:55:54.312Z,5.70
2023-03-01T08:58:21.840Z,6.03
2023-03-01T09:00:51.311Z,5.25
2023-03-01T09:03:20.345Z,5.93
2023-03-01T09:05:47.825Z,6.05
2023-03-01T09:08:16.331Z,6.10
2023-03-01T09:10:44.043Z,6.07
2023-03-01T09:13:12.307Z,6.50
2023-03-01T09:15:40.831Z,5.97
2023-03-01T09:18:09.330Z,6.05
2023-03-01T09:20:39.148Z,7.60
2023-03-01T09:23:06.619Z,6.07
2023-03-01T09:25:35.813Z,6.63
2023-03-01T09:28:04.792Z,6.13
2023-03-01T09:30:32.441Z,6.30
2023-03-01T09:33:00.021Z,6.30
2023-03-01T09:35:28.324Z,6.28
2023-03-01T09:37:57.188Z,7.80
2023-03-01T09:40:29.119Z,7.55
2023-03-01T09:43:01.375Z,5.57
2023-03-01T09:45:35.344Z,5.50
2023-03-01T09:48:08.119Z,5.65
2023-03-01T09:53:09.139Z,5.55
2023-03-01T09:55:42.129Z,5.63
2023-03-01T09:58:29.685Z,4.93
2023-03-01T10:01:02.310Z,5.53
2023-03-01T10:03:37.421Z,6.20
2023-03-01T10:06:27.472Z,6.32
2023-03-01T10:09:07.439Z,5.47
2023-03-01T10:11:40.694Z,6.03
2023-03-01T10:14:22.198Z,6.15
2023-03-01T10:16:55.354Z,6.50
2023-03-01T10:19:27.499Z,6.47
2023-03-01T10:21:55.333Z,6.75
2023-03-01T10:24:24.183Z,6.03
2023-03-01T10:26:58.337Z,6.88
2023-03-01T10:29:30.739Z,6.70
2023-03-01T10:31:59.341Z,7.10
2023-03-01T10:34:31.386Z,6.78
2023-03-01T10:39:29.299Z,6.90
2023-03-01T10:42:00.392Z,6.60
2023-03-01T10:44:45.382Z,7.07
2023-03-01T10:47:21.323Z,6.60
2023-03-01T10:49:58.386Z,6.88
2023-03-01T10:52:28.802Z,6.43
2023-03-01T10:55:00.325Z,6.63
2023-03-01T10:57:37.630Z,6.70
2023-03-01T11:00:25.364Z,6.90
2023-03-01T11:03:13.059Z,6.72
2023-03-01T11:06:02.662Z,6.63
2023-03-01T11:08:48.833Z,6.72
2023-03-01T11:11:34.316Z,6.80
2023-03-01T11:14:23.471Z,6.63
2023-03-01T11:17:02.789Z,7.00
2023-03-01T11:19:30.834Z,7.10
2023-03-01T11:22:05.463Z,6.68
2023-03-01T11:24:41.175Z,6.93
2023-03-01T11:27:18.720Z,6.60
2023-03-01T11:29:51.990Z,6.90
2023-03-01T11:32:21.644Z,6.78
2023-03-01T11:34:53.092Z,6.45
2023-03-01T11:37:35.366Z,7.45
2023-03-01T11:40:13.375Z,7.72
2023-03-01T11:42:52.333Z,7.00
2023-03-01T11:45:25.829Z,6.60
2023-03-01T11:48:05.151Z,6.80
2023-03-01T11:50:41.744Z,6.68
2023-03-01T11:53:49.118Z,6.97
2023-03-01T11:56:28.304Z,6.30
2023-03-01T11:59:23.697Z,6.65
2023-03-01T12:02:08.867Z,6.07
2023-03-01T12:05:02.441Z,6.03
2023-03-01T12:07:42.731Z,5.78
2023-03-01T12:10:26.376Z,5.93
2023-03-01T12:13:15.875Z,6.32
2023-03-01T12:16:09.364Z,6.07
2023-03-01T12:18:58.650Z,5.72
2023-03-01T12:21:41.547Z,6.15
2023-03-01T12:24:34.299Z,5.90
2023-03-01T12:27:39.394Z,5.78
2023-03-01T12:30:29.395Z,5.90
2023-03-01T12:33:15.943Z,5.88
2023-03-01T12:36:18.626Z,6.10
2023-03-01T12:38:53.304Z,6.32
2023-03-01T12:41:45.618Z,5.60
2023-03-01T12:47:01.308Z,5.72
2023-03-01T12:49:36.366Z,6.28
2023-03-01T12:52:14.144Z,6.20
2023-03-01T12:54:46.300Z,5.78
2023-03-01T12:57:22.765Z,6.57
2023-03-01T13:00:10.545Z,6.10
2023-03-01T13:02:48.379Z,6.07
2023-03-01T13:05:34.341Z,6.50
2023-03-01T13:08:11.283Z,6.53
2023-03-01T13:10:45.454Z,6.40
2023-03-01T13:13:20.432Z,6.22
2023-03-01T13:15:48.744Z,5.80
2023-03-01T13:18:34.197Z,6.00
2023-03-01T13:21:06.309Z,5.85
2023-03-01T13:23:37.305Z,6.13
2023-03-01T13:26:16.616Z,5.28
2023-03-01T13:28:54.428Z,5.60
2023-03-01T13:32:05.786Z,5.82
2023-03-01T13:34:45.848Z,5.03
2023-03-01T13:37:24.515Z,5.35
2023-03-01T13:39:52.317Z,5.10
2023-03-01T13:42:46.550Z,4.90
2023-03-01T13:45:25.160Z,4.82
2023-03-01T13:47:59.340Z,5.50
2023-03-01T13:50:30.395Z,5.40
2023-03-01T13:53:02.333Z,5.40
2023-03-01T13:58:17.908Z,4.63
2023-03-01T14:00:45.434Z,4.93
2023-03-01T14:03:16.308Z,4.57
2023-03-01T14:08:24.358Z,4.55
2023-03-01T14:11:19.321Z,4.50
2023-03-01T14:14:01.876Z,5.00
2023-03-01T14:16:40.365Z,5.18
2023-03-01T14:19:31.123Z,4.93
2023-03-01T14:22:05.265Z,5.20
2023-03-01T14:24:39.444Z,5.07
2023-03-01T14:27:13.278Z,5.65
2023-03-01T14:29:42.243Z,5.05
2023-03-01T14:32:20.071Z,5.45
2023-03-01T14:34:49.549Z,5.32
2023-03-01T14:37:22.572Z,5.30
2023-03-01T14:39:53.517Z,5.22
2023-03-01T14:42:26.298Z,5.45
2023-03-01T14:44:56.402Z,5.45
2023-03-01T14:47:31.611Z,5.47
2023-03-01T14:50:03.047Z,5.20
2023-03-01T14:52:38.318Z,4.78
2023-03-01T14:55:17.394Z,5.50
2023-03-01T14:57:50.309Z,4.75
2023-03-01T15:00:22.071Z,5.25
2023-03-01T15:02:51.893Z,5.07
2023-03-01T15:05:30.983Z,4.75
2023-03-01T15:08:02.456Z,5.03
2023-03-01T15:10:34.321Z,4.55
2023-03-01T15:13:12.909Z,4.87
2023-03-01T15:15:47.210Z,4.75
2023-03-01T15:18:18.739Z,5.15
2023-03-01T15:20:49.441Z,4.97
2023-03-01T15:23:23.080Z,4.82
2023-03-01T15:25:58.204Z,5.22
2023-03-01T15:28:52.316Z,4.85
2023-03-01T15:31:23.277Z,4.43
2023-03-01T15:33:52.014Z,5.32
2023-03-01T15:36:36.448Z,4.95
2023-03-01T15:39:07.087Z,5.38
2023-03-01T15:41:48.527Z,4.85
2023-03-01T15:44:19.342Z,4.95
2023-03-01T15:46:50.010Z,4.72
2023-03-01T15:49:46.451Z,5.00
2023-03-01T15:52:29.940Z,5.15
2023-03-01T15:55:00.292Z,5.07
2023-03-01T15:57:29.295Z,4.55
2023-03-01T15:59:57.159Z,4.40
2023-03-01T16:02:25.849Z,5.07
2023-03-01T16:04:54.568Z,4.40
2023-03-01T16:07:22.232Z,4.20
2023-03-01T16:09:50.730Z,4.25
2023-03-01T16:12:18.619Z,4.43
2023-03-01T16:14:50.237Z,4.68
2023-03-01T16:17:17.937Z,4.32
2023-03-01T16:19:45.449Z,4.75
2023-03-01T16:22:13.055Z,4.47
2023-03-01T16:24:41.513Z,5.00
2023-03-01T16:27:09.033Z,4.50
2023-03-01T16:29:37.243Z,4.85
2023-03-01T16:32:07.195Z,4.55
2023-03-01T16:37:26.612Z,4.90
2023-03-01T16:39:54.359Z,4.40
2023-03-01T16:42:21.961Z,4.45
2023-03-01T16:44:49.434Z,4.57
2023-03-01T16:47:18.311Z,4.60
2023-03-01T16:49:46.015Z,4.50
2023-03-01T16:52:14.029Z,4.30
2023-03-01T16:54:41.535Z,4.28
2023-03-01T16:57:09.424Z,4.43
2023-03-01T16:59:38.343Z,4.47
2023-03-01T17:02:06.764Z,5.13
2023-03-01T17:04:36.312Z,4.80
2023-03-01T17:07:05.757Z,4.53
2023-03-01T17:09:36.522Z,4.78
2023-03-01T17:12:05.308Z,4.63
2023-03-01T17:14:34.331Z,4.63
2023-03-01T17:17:03.468Z,4.82
2023-03-01T17:19:32.675Z,5.15
2023-03-01T17:22:01.793Z,4.32
2023-03-01T17:24:30.248Z,5.07
2023-03-01T17:26:58.321Z,4.60
2023-03-01T17:29:25.859Z,4.38
2023-03-01T17:31:54.828Z,4.90
2023-03-01T17:34:23.139Z,4.25
2023-03-01T17:36:52.129Z,4.15
2023-03-01T17:39:25.650Z,5.07
2023-03-01T17:41:53.325Z,5.05
2023-03-01T17:44:21.368Z,6.00
2023-03-01T17:46:48.936Z,5.13
2023-03-01T17:49:17.814Z,4.88
2023-03-01T17:51:46.321Z,5.32
2023-03-01T17:54:13.853Z,5.88
2023-03-01T17:56:43.316Z,5.85
2023-03-01T17:59:10.840Z,5.85
2023-03-01T18:01:39.017Z,6.18
2023-03-01T18:04:07.299Z,5.60
2023-03-01T18:06:37.230Z,5.53
2023-03-01T18:09:05.934Z,7.25
2023-03-01T18:11:34.996Z,11.43
2023-03-01T18:14:04.734Z,10.80
2023-03-01T18:16:33.858Z,9.05
2023-03-01T18:19:02.726Z,7.32
2023-03-01T18:21:31.669Z,6.00
2023-03-01T18:23:59.624Z,5.35
2023-03-01T18:26:29.891Z,5.03
2023-03-01T18:29:00.985Z,5.07
2023-03-01T18:31:33.479Z,4.90
2023-03-01T18:34:01.875Z,4.88
2023-03-01T18:36:32.578Z,4.97
2023-03-01T18:39:00.485Z,4.75
2023-03-01T18:41:29.941Z,5.25
2023-03-01T18:43:58.393Z,5.38
2023-03-01T18:46:26.510Z,4.90
2023-03-01T18:48:55.544Z,5.32
2023-03-01T18:51:26.879Z,5.30
2023-03-01T18:53:57.336Z,5.13
2023-03-01T18:56:25.493Z,5.70
2023-03-01T18:58:53.403Z,5.90
2023-03-01T19:01:24.678Z,6.05
2023-03-01T19:03:57.139Z,4.88
2023-03-01T19:06:30.355Z,4.40
2023-03-01T19:08:58.750Z,4.32
2023-03-01T19:11:27.214Z,4.20
2023-03-01T19:13:55.197Z,4.50
2023-03-01T19:16:27.335Z,3.72
2023-03-01T19:19:00.384Z,4.72
2023-03-01T19:21:33.777Z,4.35
2023-03-01T19:24:03.039Z,4.30
2023-03-01T19:26:31.913Z,5.30
2023-03-01T19:29:00.329Z,5.38
2023-03-01T19:31:29.753Z,5.22
2023-03-01T19:34:10.948Z,5.65
2023-03-01T19:36:39.501Z,5.72
2023-03-01T19:39:08.306Z,5.97
2023-03-01T19:41:40.364Z,5.30
2023-03-01T19:46:36.546Z,5.50
2023-03-01T19:49:07.629Z,5.28
2023-03-01T19:51:36.708Z,5.55
2023-03-01T19:54:05.560Z,6.28
2023-03-01T19:56:33.766Z,6.95
2023-03-01T19:59:04.095Z,6.95
2023-03-01T20:01:33.965Z,5.95
2023-03-01T20:04:01.604Z,6.40
2023-03-01T20:06:31.304Z,5.40
2023-03-01T20:09:06.301Z,4.47
2023-03-01T20:11:36.749Z,5.07
2023-03-01T20:14:06.608Z,5.00
2023-03-01T20:16:34.686Z,5.72
2023-03-01T20:19:02.680Z,5.30
2023-03-01T20:21:34.085Z,5.18
2023-03-01T20:24:02.208Z,5.30
2023-03-01T20:26:30.059Z,4.82
2023-03-01T20:28:58.071Z,5.20
2023-03-01T20:31:29.053Z,5.10
2023-03-01T20:33:58.706Z,5.30
2023-03-01T20:36:26.573Z,6.25
2023-03-01T20:38:55.923Z,7.88
2023-03-01T20:41:25.853Z,7.00
2023-03-01T20:43:57.320Z,7.00
2023-03-01T20:46:26.656Z,5.72
2023-03-01T20:48:54.877Z,5.32
2023-03-01T20:51:23.306Z,5.20
2023-03-01T20:53:51.124Z,5.07
2023-03-01T20:56:21.693Z,5.45
2023-03-01T20:59:05.428Z,5.20
2023-03-01T21:01:33.711Z,5.68
2023-03-01T21:04:01.305Z,5.45
2023-03-01T21:06:29.158Z,5.20
2023-03-01T21:08:56.907Z,5.32
2023-03-01T21:11:26.059Z,5.30
2023-03-01T21:13:53.933Z,6.18
2023-03-01T21:16:22.666Z,5.60
2023-03-01T21:18:50.668Z,5.72
2023-03-01T21:21:20.962Z,5.43
2023-03-01T21:23:48.886Z,5.88
2023-03-01T21:26:19.304Z,5.18
2023-03-01T21:28:50.096Z,5.20
2023-03-01T21:31:19.510Z,5.45
2023-03-01T21:33:49.225Z,5.15
2023-03-01T21:36:17.277Z,5.32
2023-03-01T21:38:47.360Z,4.80
2023-03-01T21:41:17.315Z,4.38
2023-03-01T21:43:49.118Z,4.57
2023-03-01T21:46:20.330Z,4.63
2023-03-01T21:48:49.756Z,5.47
2023-03-01T21:51:19.598Z,5.00
2023-03-01T21:53:47.489Z,5.13
2023-03-01T21:56:17.654Z,5.10
2023-03-01T21:58:46.090Z,5.15
2023-03-01T22:01:17.077Z,5.30
2023-03-01T22:03:48.393Z,5.10
2023-03-01T22:06:19.476Z,4.88
2023-03-01T22:08:48.362Z,5.07
2023-03-01T22:11:19.305Z,4.57
2023-03-01T22:13:49.426Z,5.03
2023-03-01T22:16:20.203Z,5.03
2023-03-01T22:18:48.430Z,5.05
2023-03-01T22:21:17.017Z,5.45
2023-03-01T22:23:44.706Z,4.90
2023-03-01T22:26:23.440Z,4.88
2023-03-01T22:28:51.776Z,4.82
2023-03-01T22:31:21.250Z,5.18
2023-03-01T22:33:50.460Z,4.60
2023-03-01T22:36:18.259Z,5.53
2023-03-01T22:38:46.163Z,5.30
2023-03-01T22:41:13.980Z,5.15
2023-03-01T22:43:41.624Z,6.18
2023-03-01T22:46:14.466Z,5.40
2023-03-01T22:48:43.496Z,5.30
2023-03-01T22:51:15.519Z,5.22
2023-03-01T22:53:43.240Z,5.55
2023-03-01T22:56:13.841Z,4.95
2023-03-01T22:58:41.440Z,5.20
2023-03-01T23:01:13.847Z,4.70
2023-03-01T23:03:42.777Z,4.75
2023-03-01T23:06:12.316Z,5.20
2023-03-01T23:08:40.315Z,4.50
2023-03-01T23:11:13.667Z,5.18
2023-03-01T23:13:41.396Z,4.57
2023-03-01T23:16:09.711Z,4.70
2023-03-01T23:18:37.331Z,4.38
2023-03-01T23:21:10.567Z,4.40
2023-03-01T23:23:38.588Z,4.63
2023-03-01T23:26:07.050Z,4.45
2023-03-01T23:28:35.144Z,4.30
2023-03-01T23:31:04.507Z,4.38
2023-03-01T23:33:37.664Z,4.22
2023-03-01T23:36:07.289Z,4.57
2023-03-01T23:38:37.067Z,4.82
2023-03-01T23:41:04.870Z,4.13
2023-03-01T23:43:33.077Z,4.88
2023-03-01T23:46:01.434Z,4.18
2023-03-01T23:48:29.979Z,4.30
2023-03-01T23:50:57.537Z,4.63
2023-03-01T23:53:25.134Z,4.85
2023-03-01T23:55:55.131Z,4.38
2023-03-01T23:58:28.223Z,4.47
